Skip Navigation LinksHome page > Weather > Current weather Skip Navigation Links

Current Weather

Detroit City, Detroit

For information only: do not use for flight planning or navigation.
Latest weather
Observation time Sunday, September 20, 2020 10:53 AM EDT
Local time Sunday, September 20, 2020 11:10 AM EDT
Flight conditions Visual Meteorological Conditions
Winds
Wind direction East-Southeast (110°)
Wind speed 14 mph
Visibility 10 mi.
Sky condition
Ceiling unlimited
Sky clear
Temperature 61°F
Dewpoint 42°F
Altimeter 30.53 in.Hg
Pressure change last 3 hours-0.05 in.Hg
Pressure rising more quickly
Derived measurements
Relative humidity 50%
Density altitude 199 ft.
Sea-level pressure 30.53 in.Hg
Remarks
Automated weather observing station with precipitation discriminator.
METAR KDET 201453Z 11012KT 10SM CLR 16/06 A3053 RMK AO2 SLP340 T01610056 53016

Settings

Location code

InnerDrive.Weather 4.0.6770.0 Release CLR 4.0.30319.42000
Copyright ©2018 Inner Drive Technology. All rights reserved. Portions Copyright ©1986-2018 David Braverman.

Find weather

Site navigation


Skip Navigation Links

Place info

Page info

PayPal - The safer, easier way to pay online!

Return home.

Copyright ©2020 Inner Drive Technology. Purveyors of fine, hand-crafted computer software. Page printed 2020-09-20T15:10:59 UTC.